createdAt,value
2018-09-23T00:02:08.387Z,12.58
2018-09-23T00:04:38.056Z,12.60
2018-09-23T00:07:30.843Z,12.56
2018-09-23T00:10:00.756Z,12.58
2018-09-23T00:12:30.436Z,12.58
2018-09-23T00:15:01.579Z,12.51
2018-09-23T00:17:39.585Z,12.43
2018-09-23T00:20:09.524Z,12.34
2018-09-23T00:22:40.872Z,12.23
2018-09-23T00:25:10.549Z,12.13
2018-09-23T00:27:40.432Z,12.04
2018-09-23T00:30:09.950Z,11.99
2018-09-23T00:32:41.839Z,11.92
2018-09-23T00:35:11.383Z,11.87
2018-09-23T00:37:41.177Z,11.87
2018-09-23T00:40:16.179Z,11.84
2018-09-23T00:42:55.044Z,11.87
2018-09-23T00:45:24.642Z,11.86
2018-09-23T00:47:54.248Z,11.81
2018-09-23T00:50:23.888Z,11.88
2018-09-23T00:52:53.420Z,11.88
2018-09-23T00:55:22.952Z,11.86
2018-09-23T00:57:52.742Z,11.89
2018-09-23T01:00:22.362Z,11.77
2018-09-23T01:02:52.014Z,11.71
2018-09-23T01:05:23.074Z,11.69
2018-09-23T01:07:52.777Z,11.72
2018-09-23T01:10:24.109Z,11.71
2018-09-23T01:12:53.730Z,11.68
2018-09-23T01:15:23.698Z,11.65
2018-09-23T01:17:53.222Z,11.59
2018-09-23T01:20:22.892Z,11.60
2018-09-23T01:22:52.455Z,11.59
2018-09-23T01:25:22.546Z,11.61
2018-09-23T01:27:52.182Z,11.57
2018-09-23T01:30:21.908Z,11.60
2018-09-23T01:32:51.980Z,11.61
2018-09-23T01:35:21.823Z,11.60
2018-09-23T01:37:51.596Z,11.65
2018-09-23T01:40:21.344Z,11.64
2018-09-23T01:42:54.748Z,11.60
2018-09-23T01:45:24.363Z,11.55
2018-09-23T01:47:53.956Z,11.55
2018-09-23T01:50:23.773Z,11.57
2018-09-23T01:52:53.812Z,11.67
2018-09-23T01:55:23.502Z,11.75
2018-09-23T01:57:53.196Z,11.68
2018-09-23T02:00:22.868Z,11.64
2018-09-23T02:02:52.456Z,11.60
2018-09-23T02:05:22.031Z,11.59
2018-09-23T02:07:51.999Z,11.57
2018-09-23T02:10:21.719Z,11.58
2018-09-23T02:12:51.517Z,11.54
2018-09-23T02:15:22.028Z,11.54
2018-09-23T02:17:51.691Z,11.51
2018-09-23T02:20:21.257Z,11.57
2018-09-23T02:22:51.162Z,11.47
2018-09-23T02:25:20.832Z,11.49
2018-09-23T02:27:50.916Z,11.47
2018-09-23T02:30:22.684Z,11.47
2018-09-23T02:32:52.252Z,11.47
2018-09-23T02:35:23.713Z,11.48
2018-09-23T02:37:55.387Z,11.46
2018-09-23T02:40:26.458Z,11.53
2018-09-23T02:42:57.143Z,11.59
2018-09-23T02:45:26.713Z,11.56
2018-09-23T02:47:56.278Z,11.57
2018-09-23T02:50:26.234Z,11.49
2018-09-23T02:52:56.018Z,11.52
2018-09-23T02:55:25.651Z,11.58
2018-09-23T02:57:55.380Z,11.59
2018-09-23T03:00:25.309Z,11.54
2018-09-23T03:02:54.982Z,11.56
2018-09-23T03:05:24.566Z,11.57
2018-09-23T03:07:54.015Z,11.63
2018-09-23T03:10:23.952Z,11.65
2018-09-23T03:12:53.548Z,11.62
2018-09-23T03:15:23.259Z,11.63
2018-09-23T03:18:01.088Z,11.69
2018-09-23T03:20:30.866Z,11.66
2018-09-23T03:23:00.562Z,11.63
2018-09-23T03:25:30.124Z,11.66
2018-09-23T03:27:59.864Z,11.66
2018-09-23T03:30:29.523Z,11.67
2018-09-23T03:33:08.388Z,11.70
2018-09-23T03:35:38.242Z,11.71
2018-09-23T03:38:08.207Z,11.75
2018-09-23T03:40:38.485Z,11.78
2018-09-23T03:43:13.718Z,11.79
2018-09-23T03:45:43.413Z,11.84
2018-09-23T03:48:13.210Z,11.85
2018-09-23T03:50:43.111Z,11.90
2018-09-23T03:53:13.692Z,11.91
2018-09-23T03:55:43.552Z,11.92
2018-09-23T03:58:13.369Z,11.92
2018-09-23T04:00:43.229Z,11.92
2018-09-23T04:03:12.865Z,11.96
2018-09-23T04:05:42.530Z,12.01
2018-09-23T04:08:18.808Z,12.10
2018-09-23T04:10:48.809Z,12.14
2018-09-23T04:13:18.370Z,12.14
2018-09-23T04:15:48.237Z,12.14
2018-09-23T04:18:22.334Z,12.19
2018-09-23T04:20:52.315Z,12.27
2018-09-23T04:23:21.883Z,12.35
2018-09-23T04:25:51.500Z,12.44
2018-09-23T04:28:21.388Z,12.52
2018-09-23T04:30:51.052Z,12.62
2018-09-23T04:33:20.772Z,12.70
2018-09-23T04:35:51.261Z,12.75
2018-09-23T04:38:20.843Z,12.82
2018-09-23T04:40:50.570Z,12.92
2018-09-23T04:43:20.314Z,13.02
2018-09-23T04:45:50.134Z,13.12
2018-09-23T04:48:19.681Z,13.11
2018-09-23T04:50:50.610Z,13.14
2018-09-23T04:53:20.295Z,13.26
2018-09-23T04:55:51.389Z,13.28
2018-09-23T04:58:20.969Z,13.35
2018-09-23T05:00:50.889Z,13.34
2018-09-23T05:03:20.966Z,13.38
2018-09-23T05:05:51.342Z,13.42
2018-09-23T05:08:27.508Z,13.48
2018-09-23T05:10:57.256Z,13.48
2018-09-23T05:13:27.015Z,13.61
2018-09-23T05:15:56.968Z,13.66
2018-09-23T05:18:44.934Z,13.74
2018-09-23T05:21:14.960Z,13.79
2018-09-23T05:23:44.546Z,13.84
2018-09-23T05:26:14.246Z,13.87
2018-09-23T05:28:47.601Z,13.90
2018-09-23T05:31:28.897Z,13.96
2018-09-23T05:33:58.918Z,14.05
2018-09-23T05:36:30.148Z,14.07
2018-09-23T05:39:06.907Z,14.16
2018-09-23T05:41:37.337Z,14.22
2018-09-23T05:44:25.083Z,14.33
2018-09-23T05:47:00.930Z,14.39
2018-09-23T05:49:41.624Z,14.45
2018-09-23T05:52:12.016Z,14.49
2018-09-23T05:54:45.455Z,14.56
2018-09-23T05:57:15.208Z,14.64
2018-09-23T05:59:45.039Z,14.71
2018-09-23T06:02:14.937Z,14.85
2018-09-23T06:04:44.936Z,14.88
2018-09-23T06:07:14.564Z,15.03
2018-09-23T06:09:44.355Z,15.17
2018-09-23T06:12:13.973Z,15.31
2018-09-23T06:14:43.813Z,15.34
2018-09-23T06:17:13.494Z,15.39
2018-09-23T06:19:55.887Z,15.49
2018-09-23T06:22:25.702Z,15.64
2018-09-23T06:24:55.423Z,15.81
2018-09-23T06:27:30.495Z,15.86
2018-09-23T06:30:02.841Z,15.96
2018-09-23T06:32:32.583Z,16.11
2018-09-23T06:35:02.525Z,16.13
2018-09-23T06:37:32.207Z,16.23
2018-09-23T06:40:02.739Z,16.31
2018-09-23T06:42:32.448Z,16.37
2018-09-23T06:45:02.276Z,16.46
2018-09-23T06:47:32.038Z,16.52
2018-09-23T06:50:01.845Z,16.65
2018-09-23T06:52:36.449Z,16.75
2018-09-23T06:55:06.547Z,16.76
2018-09-23T06:57:36.442Z,16.78
2018-09-23T07:00:06.284Z,16.92
2018-09-23T07:02:36.211Z,17.03
2018-09-23T07:05:06.941Z,17.10
2018-09-23T07:07:36.744Z,17.29
2018-09-23T07:10:06.624Z,17.48
2018-09-23T07:12:36.350Z,17.76
2018-09-23T07:15:06.835Z,17.97
2018-09-23T07:17:37.472Z,18.07
2018-09-23T07:20:07.280Z,18.18
2018-09-23T07:22:37.807Z,18.29
2018-09-23T07:25:12.348Z,18.30
2018-09-23T07:27:42.588Z,18.37
2018-09-23T07:30:12.521Z,18.32
2018-09-23T07:32:42.416Z,18.39
2018-09-23T07:35:12.326Z,18.38
2018-09-23T07:37:52.369Z,18.84
2018-09-23T07:40:22.321Z,19.85
2018-09-23T07:42:51.986Z,20.01
2018-09-23T07:45:21.778Z,20.08
2018-09-23T07:47:51.529Z,20.13
2018-09-23T07:50:22.030Z,19.90
2018-09-23T07:52:51.966Z,19.74
2018-09-23T07:55:21.987Z,19.70
2018-09-23T07:57:53.040Z,19.58
2018-09-23T08:00:23.121Z,19.58
2018-09-23T08:02:53.058Z,19.46
2018-09-23T08:05:23.734Z,19.44
2018-09-23T08:07:55.209Z,19.31
2018-09-23T08:10:25.276Z,19.33
2018-09-23T08:12:55.469Z,19.25
2018-09-23T08:15:25.381Z,19.29
2018-09-23T08:20:37.997Z,20.17
2018-09-23T08:23:13.926Z,19.96
2018-09-23T08:25:44.507Z,20.49
2018-09-23T08:28:14.249Z,21.27
2018-09-23T08:30:45.329Z,21.27
2018-09-23T08:33:15.187Z,20.74
2018-09-23T08:35:45.070Z,20.49
2018-09-23T08:38:14.989Z,20.17
2018-09-23T08:40:44.892Z,20.29
2018-09-23T08:43:14.965Z,20.34
2018-09-23T08:45:44.750Z,20.32
2018-09-23T08:48:16.199Z,20.20
2018-09-23T08:50:58.147Z,19.98
2018-09-23T08:53:27.833Z,19.65
2018-09-23T08:56:06.273Z,19.52
2018-09-23T08:58:36.416Z,19.60
2018-09-23T09:01:06.322Z,19.60
2018-09-23T09:03:37.282Z,19.73
2018-09-23T09:06:07.466Z,19.63
2018-09-23T09:08:38.640Z,19.71
2018-09-23T09:11:22.712Z,19.82
2018-09-23T09:13:53.475Z,19.84
2018-09-23T09:16:25.484Z,19.88
2018-09-23T09:18:55.700Z,20.03
2018-09-23T09:21:25.411Z,20.04
2018-09-23T09:23:55.116Z,20.29
2018-09-23T09:26:24.732Z,20.45
2018-09-23T09:28:54.307Z,20.70
2018-09-23T09:31:25.241Z,20.80
2018-09-23T09:33:54.804Z,20.93
2018-09-23T09:36:38.851Z,21.02
2018-09-23T09:39:11.585Z,21.03
2018-09-23T09:41:42.047Z,21.12
2018-09-23T09:44:11.799Z,21.39
2018-09-23T09:46:41.445Z,21.52
2018-09-23T09:49:11.364Z,21.62
2018-09-23T09:51:41.109Z,21.58
2018-09-23T09:54:10.854Z,21.69
2018-09-23T09:56:40.968Z,21.72
2018-09-23T09:59:11.003Z,21.77
2018-09-23T10:01:42.247Z,21.79
2018-09-23T10:07:03.777Z,22.16
2018-09-23T10:09:34.242Z,22.34
2018-09-23T10:12:04.162Z,22.86
2018-09-23T10:14:34.439Z,23.10
2018-09-23T10:17:07.712Z,22.90
2018-09-23T10:19:37.840Z,22.82
2018-09-23T10:22:09.343Z,22.92
2018-09-23T10:27:30.485Z,23.04
2018-09-23T10:30:37.062Z,23.19
2018-09-23T10:33:08.845Z,23.40
2018-09-23T10:35:42.032Z,23.09
2018-09-23T10:38:13.309Z,23.12
2018-09-23T10:40:43.213Z,23.24
2018-09-23T10:43:13.181Z,23.39
2018-09-23T10:45:43.601Z,23.31
2018-09-23T10:48:24.861Z,23.24
2018-09-23T10:50:54.582Z,23.12
2018-09-23T10:53:24.850Z,23.13
2018-09-23T10:58:28.205Z,23.31
2018-09-23T11:00:58.706Z,23.56
2018-09-23T11:06:34.024Z,23.49
2018-09-23T11:09:04.274Z,23.59
2018-09-23T11:11:41.737Z,23.49
2018-09-23T11:14:11.594Z,23.37
2018-09-23T11:16:41.907Z,23.40
2018-09-23T11:19:12.367Z,23.40
2018-09-23T11:21:43.227Z,23.63
2018-09-23T11:24:13.018Z,23.84
2018-09-23T11:26:42.788Z,23.84
2018-09-23T11:29:12.844Z,23.57
2018-09-23T11:31:43.498Z,23.55
2018-09-23T11:34:13.307Z,23.65
2018-09-23T11:36:43.016Z,23.66
2018-09-23T11:39:13.616Z,23.73
2018-09-23T11:41:43.307Z,23.75
2018-09-23T11:44:14.523Z,23.64
2018-09-23T11:46:44.387Z,23.62
2018-09-23T11:49:16.354Z,23.69
2018-09-23T11:51:46.188Z,23.78
2018-09-23T11:54:15.950Z,23.74
2018-09-23T11:56:45.659Z,23.75
2018-09-23T11:59:17.487Z,23.71
2018-09-23T12:01:47.192Z,23.78
2018-09-23T12:04:17.132Z,23.91
2018-09-23T12:06:50.053Z,24.08
2018-09-23T12:09:19.799Z,24.29
2018-09-23T12:11:59.402Z,24.15
2018-09-23T12:14:29.841Z,23.89
2018-09-23T12:17:01.350Z,23.85
2018-09-23T12:19:35.873Z,23.81
2018-09-23T12:22:05.872Z,23.80
2018-09-23T12:24:37.073Z,23.73
2018-09-23T12:27:07.137Z,23.79
2018-09-23T12:29:37.340Z,23.98
2018-09-23T12:32:09.324Z,24.30
2018-09-23T12:34:39.997Z,24.63
2018-09-23T12:37:09.975Z,24.52
2018-09-23T12:39:40.687Z,24.41
2018-09-23T12:42:10.498Z,24.76
2018-09-23T12:44:40.699Z,24.52
2018-09-23T12:47:10.546Z,24.51
2018-09-23T12:49:41.148Z,24.52
2018-09-23T12:52:16.821Z,24.70
2018-09-23T12:54:48.547Z,24.70
2018-09-23T12:57:18.510Z,24.73
2018-09-23T12:59:48.521Z,24.77
2018-09-23T13:02:18.629Z,24.99
2018-09-23T13:04:48.611Z,25.22
2018-09-23T13:07:18.681Z,25.36
2018-09-23T13:09:48.482Z,25.45
2018-09-23T13:12:19.109Z,25.57
2018-09-23T13:14:57.624Z,25.50
2018-09-23T13:17:27.455Z,25.27
2018-09-23T13:20:05.112Z,25.08
2018-09-23T13:25:43.005Z,25.35
2018-09-23T13:28:12.682Z,25.32
2018-09-23T13:30:42.657Z,25.12
2018-09-23T13:33:13.245Z,25.11
2018-09-23T13:35:42.989Z,24.81
2018-09-23T13:38:12.970Z,24.64
2018-09-23T13:40:42.853Z,24.47
2018-09-23T13:43:15.325Z,24.42
2018-09-23T13:45:45.929Z,24.42
2018-09-23T13:48:15.597Z,24.55
2018-09-23T13:50:47.945Z,24.80
2018-09-23T13:53:18.127Z,24.84
2018-09-23T13:55:47.952Z,24.56
2018-09-23T14:01:52.990Z,24.21
2018-09-23T14:07:06.027Z,24.08
2018-09-23T14:09:35.611Z,24.09
2018-09-23T14:12:05.456Z,24.04
2018-09-23T14:14:35.036Z,23.97
2018-09-23T14:17:04.634Z,24.02
2018-09-23T14:19:34.145Z,24.03
2018-09-23T14:22:04.403Z,24.19
2018-09-23T14:24:34.041Z,24.47
2018-09-23T14:27:03.630Z,24.46
2018-09-23T14:29:33.357Z,24.57
2018-09-23T14:32:03.467Z,24.57
2018-09-23T14:34:33.097Z,24.43
2018-09-23T14:37:02.824Z,24.31
2018-09-23T14:39:37.650Z,24.26
2018-09-23T14:42:08.589Z,24.21
2018-09-23T14:44:38.266Z,24.16
2018-09-23T14:47:07.951Z,24.12
2018-09-23T14:49:37.543Z,24.07
2018-09-23T14:52:07.445Z,24.33
2018-09-23T14:54:37.573Z,24.29
2018-09-23T14:57:07.582Z,24.01
2018-09-23T14:59:37.465Z,23.90
2018-09-23T15:02:07.295Z,23.88
2018-09-23T15:04:37.008Z,23.84
2018-09-23T15:07:06.672Z,23.86
2018-09-23T15:09:36.434Z,24.03
2018-09-23T15:12:07.144Z,24.16
2018-09-23T15:14:36.820Z,24.34
2018-09-23T15:17:07.028Z,24.43
2018-09-23T15:19:38.128Z,24.76
2018-09-23T15:22:08.252Z,25.03
2018-09-23T15:24:37.950Z,24.92
2018-09-23T15:27:21.193Z,25.81
2018-09-23T15:29:51.329Z,26.02
2018-09-23T15:32:22.073Z,26.49
2018-09-23T15:34:51.857Z,27.23
2018-09-23T15:37:21.590Z,26.55
2018-09-23T15:39:51.479Z,26.32
2018-09-23T15:42:23.200Z,26.89
2018-09-23T15:44:53.472Z,25.81
2018-09-23T15:47:23.619Z,25.04
2018-09-23T15:49:53.432Z,24.39
2018-09-23T15:52:24.022Z,24.28
2018-09-23T15:54:53.663Z,24.21
2018-09-23T15:57:23.535Z,24.02
2018-09-23T15:59:53.655Z,23.92
2018-09-23T16:02:23.645Z,23.83
2018-09-23T16:04:53.474Z,23.73
2018-09-23T16:07:23.704Z,23.69
2018-09-23T16:09:53.456Z,23.62
2018-09-23T16:12:23.204Z,23.61
2018-09-23T16:14:53.085Z,23.61
2018-09-23T16:17:23.125Z,23.63
2018-09-23T16:19:52.873Z,23.69
2018-09-23T16:22:22.779Z,23.69
2018-09-23T16:24:52.572Z,23.69
2018-09-23T16:27:22.387Z,23.68
2018-09-23T16:29:52.743Z,23.63
2018-09-23T16:32:22.920Z,22.82
2018-09-23T16:34:52.675Z,21.92
2018-09-23T16:37:22.494Z,21.50
2018-09-23T16:39:52.638Z,21.53
2018-09-23T16:42:22.636Z,21.48
2018-09-23T16:44:52.849Z,21.43
2018-09-23T16:47:22.658Z,21.51
2018-09-23T16:49:53.558Z,21.38
2018-09-23T16:52:24.308Z,20.61
2018-09-23T16:54:54.496Z,19.61
2018-09-23T16:57:24.742Z,17.92
2018-09-23T17:00:25.963Z,17.17
2018-09-23T17:02:56.343Z,16.89
2018-09-23T17:05:26.684Z,16.72
2018-09-23T17:07:58.140Z,16.57
2018-09-23T17:10:28.475Z,16.39
2018-09-23T17:12:59.421Z,16.31
2018-09-23T17:15:29.274Z,16.21
2018-09-23T17:17:59.210Z,16.17
2018-09-23T17:20:29.752Z,16.18
2018-09-23T17:24:00.264Z,16.12
2018-09-23T17:26:30.575Z,16.15
2018-09-23T17:29:01.428Z,16.10
2018-09-23T17:31:32.732Z,16.09
2018-09-23T17:34:03.097Z,15.94
2018-09-23T17:36:32.793Z,15.89
2018-09-23T17:39:31.194Z,15.81
2018-09-23T17:45:35.955Z,15.64
2018-09-23T17:48:05.648Z,15.65
2018-09-23T17:50:35.298Z,15.55
2018-09-23T17:53:05.054Z,15.50
2018-09-23T17:55:35.594Z,15.40
2018-09-23T17:58:05.251Z,15.36
2018-09-23T18:00:34.998Z,15.30
2018-09-23T18:03:04.607Z,15.21
2018-09-23T18:05:34.892Z,15.26
2018-09-23T18:08:05.893Z,15.20
2018-09-23T18:10:35.649Z,15.18
2018-09-23T18:13:05.892Z,15.14
2018-09-23T18:15:35.704Z,15.10
2018-09-23T18:18:07.941Z,15.07
2018-09-23T18:20:40.339Z,15.12
2018-09-23T18:23:11.903Z,15.10
2018-09-23T18:25:42.333Z,15.14
2018-09-23T18:28:12.911Z,15.15
2018-09-23T18:30:44.906Z,15.13
2018-09-23T18:33:14.757Z,15.11
2018-09-23T18:35:47.419Z,15.09
2018-09-23T18:38:17.666Z,15.17
2018-09-23T18:40:49.099Z,14.60
2018-09-23T18:43:25.077Z,14.18
2018-09-23T18:45:55.211Z,13.62
2018-09-23T18:48:26.118Z,13.39
2018-09-23T18:50:56.177Z,12.97
2018-09-23T18:53:26.524Z,12.66
2018-09-23T18:56:00.347Z,12.49
2018-09-23T18:58:34.366Z,12.43
2018-09-23T19:01:05.246Z,12.40
2018-09-23T19:03:37.619Z,12.39
2018-09-23T19:06:09.568Z,12.17
2018-09-23T19:08:40.067Z,12.09
2018-09-23T19:11:10.353Z,12.01
2018-09-23T19:13:46.256Z,11.98
2018-09-23T19:16:21.406Z,12.01
2018-09-23T19:18:51.422Z,11.91
2018-09-23T19:21:24.763Z,11.85
2018-09-23T19:23:54.647Z,11.81
2018-09-23T19:29:25.805Z,11.62
2018-09-23T19:31:55.449Z,11.67
2018-09-23T19:34:25.117Z,11.59
2018-09-23T19:36:57.524Z,11.55
2018-09-23T19:42:13.856Z,11.47
2018-09-23T19:49:36.577Z,11.42
2018-09-23T19:52:23.394Z,11.49
2018-09-23T19:55:00.998Z,11.43
2018-09-23T19:57:48.478Z,11.46
2018-09-23T20:00:20.319Z,11.42
2018-09-23T20:02:53.867Z,11.33
2018-09-23T20:06:09.856Z,11.34
2018-09-23T20:08:54.059Z,11.35
2018-09-23T20:11:24.451Z,11.30
2018-09-23T20:14:13.319Z,11.28
2018-09-23T20:16:45.899Z,11.22
2018-09-23T20:19:19.970Z,11.19
2018-09-23T20:22:18.057Z,11.15
2018-09-23T20:30:18.495Z,11.11
2018-09-23T20:32:54.294Z,11.01
2018-09-23T20:35:27.060Z,10.99
2018-09-23T20:41:26.361Z,10.90
2018-09-23T20:43:56.553Z,10.92
2018-09-23T20:46:28.764Z,10.98
2018-09-23T20:48:59.636Z,10.99
2018-09-23T20:51:30.554Z,10.99
2018-09-23T20:54:00.320Z,11.04
2018-09-23T20:56:46.061Z,11.12
2018-09-23T20:59:18.313Z,11.10
2018-09-23T21:01:48.754Z,11.14
2018-09-23T21:04:18.728Z,11.12
2018-09-23T21:06:49.015Z,11.16
2018-09-23T21:09:19.954Z,11.16
2018-09-23T21:11:51.880Z,11.07
2018-09-23T21:14:22.787Z,11.02
2018-09-23T21:16:52.454Z,10.99
2018-09-23T21:19:22.408Z,10.89
2018-09-23T21:21:55.407Z,10.84
2018-09-23T21:24:25.428Z,10.76
2018-09-23T21:26:55.585Z,10.82
2018-09-23T21:29:25.885Z,10.72
2018-09-23T21:31:55.516Z,10.68
2018-09-23T21:34:25.350Z,10.60
2018-09-23T21:36:55.045Z,10.57
2018-09-23T21:39:24.596Z,10.48
2018-09-23T21:41:56.403Z,10.57
2018-09-23T21:44:28.522Z,10.51
2018-09-23T21:46:58.400Z,10.44
2018-09-23T21:49:29.110Z,10.43
2018-09-23T21:52:04.225Z,10.38
2018-09-23T21:54:34.241Z,10.29
2018-09-23T21:57:04.164Z,10.26
2018-09-23T21:59:34.065Z,10.29
2018-09-23T22:02:03.657Z,10.36
2018-09-23T22:04:34.492Z,10.38
2018-09-23T22:07:04.060Z,10.52
2018-09-23T22:09:34.343Z,10.50
2018-09-23T22:12:06.494Z,10.57
2018-09-23T22:14:37.124Z,10.59
2018-09-23T22:17:06.737Z,10.60
2018-09-23T22:19:36.821Z,10.61
2018-09-23T22:22:06.377Z,10.61
2018-09-23T22:24:36.075Z,10.71
2018-09-23T22:27:06.270Z,10.72
2018-09-23T22:29:36.742Z,10.73
2018-09-23T22:32:06.653Z,10.67
2018-09-23T22:34:36.602Z,10.73
2018-09-23T22:37:06.515Z,10.72
2018-09-23T22:39:36.372Z,10.73
2018-09-23T22:42:05.903Z,10.80
2018-09-23T22:44:40.358Z,10.69
2018-09-23T22:47:10.120Z,10.69
2018-09-23T22:49:45.323Z,10.71
2018-09-23T22:52:15.317Z,10.75
2018-09-23T22:54:45.072Z,10.75
2018-09-23T22:57:14.490Z,10.72
2018-09-23T22:59:43.991Z,10.75
2018-09-23T23:02:13.466Z,10.65
2018-09-23T23:04:43.071Z,10.64
2018-09-23T23:07:14.210Z,10.69
2018-09-23T23:09:44.054Z,10.65
2018-09-23T23:12:13.589Z,10.66
2018-09-23T23:14:43.447Z,10.67
2018-09-23T23:17:14.003Z,10.65
2018-09-23T23:19:43.769Z,10.63
2018-09-23T23:22:13.732Z,10.56
2018-09-23T23:24:43.314Z,10.56
2018-09-23T23:27:12.714Z,10.49
2018-09-23T23:29:42.210Z,10.48
2018-09-23T23:32:15.141Z,10.46
2018-09-23T23:34:44.902Z,10.44
2018-09-23T23:37:14.633Z,10.39
2018-09-23T23:39:44.869Z,10.45
2018-09-23T23:42:14.379Z,10.30
2018-09-23T23:44:43.946Z,10.24
2018-09-23T23:47:13.449Z,10.18
2018-09-23T23:49:43.660Z,10.19
2018-09-23T23:52:13.174Z,10.19
2018-09-23T23:54:42.782Z,10.03
2018-09-23T23:57:12.346Z,9.94
2018-09-23T23:59:41.817Z,9.91
